• Join FlightAware (Why Join?)
  • Login
  • US Flag 
08:19PM EDT


 

Airport Tracker/Info


-or-


 

Live Flight TrackerFlight Track Log ✈ SKW2696 ✈ 14-Apr-2013 ✈ KLAX - KRNO

Flight Track Log - Related Links

Times and Time Zones

All times are in EDT time to prevent confusion due to time zone crossing. See the SKW2696 flight status page for this flight to view local times or setup timezone preferences in your user account.

Time Position Orientation Groundspeed Altitude Reporting Facility
EDT Latitude Longitude Course Direction KTS MPH feet Rate Location/Type
06:48PM 33.9333 -118.4500 270° West 175 201 2,000  Level Southern California TRACON
06:49PM 33.9333 -118.5167 270° West 258 297 3,700 2,280 Climbing Southern California TRACON
06:49PM 33.9214 -118.5794 257° West 265 305 5,700 2,700 Climbing Los Angeles Center
06:51PM 33.9489 -118.6531 294° West 265 305 8,300 1,500 Climbing Los Angeles Center
06:52PM 34.0147 -118.7067 326° Northwest 266 306 8,900 960 Climbing Los Angeles Center
06:53PM 34.0850 -118.6739 21° North 284 327 10,400 1,800 Climbing Los Angeles Center
06:54PM 34.1533 -118.6678 North 258 297 12,700 1,560 Climbing Los Angeles Center
06:55PM 34.2328 -118.6808 352° North 284 327 13,700 1,200 Climbing Los Angeles Center
06:56PM 34.3417 -118.6983 352° North 326 375 15,200 1,380 Climbing Los Angeles Center
06:57PM 34.4369 -118.7111 354° North 344 396 16,600 1,320 Climbing Los Angeles Center
06:58PM 34.5331 -118.7275 352° North 347 399 18,000 1,320 Climbing Los Angeles Center
06:59PM 34.6217 -118.7717 338° Northwest 344 396 19,400 1,080 Climbing Los Angeles Center
07:00PM 34.7125 -118.8156 338° Northwest 351 404 20,300 840 Climbing Los Angeles Center
07:01PM 34.8047 -118.8628 337° Northwest 356 410 21,200 960 Climbing Los Angeles Center
07:02PM 34.9117 -118.8986 345° North 375 432 22,400 960 Climbing Los Angeles Center
07:03PM 35.0119 -118.9331 344° North 377 434 23,200 720 Climbing Los Angeles Center
07:04PM 35.1350 -118.9756 344° North 383 441 24,000 300 Climbing Los Angeles Center
07:05PM 35.2697 -119.0053 350° North 415 478 24,000  Level Los Angeles Center
07:06PM 35.3864 -119.0228 353° North 423 487 24,000  Level Los Angeles Center
07:07PM 35.5033 -119.0408 353° North 425 489 24,000  Level Los Angeles Center
07:08PM 35.6222 -119.0572 354° North 429 494 24,000  Level Los Angeles Center
07:09PM 35.7386 -119.0739 353° North 428 493 24,000  Level Oakland Center
07:10PM 35.8569 -119.0928 353° North 429 494 24,000  Level Oakland Center
07:11PM 35.9967 -119.1131 353° North 425 489 24,000  Level Oakland Center
07:12PM 36.1144 -119.1306 353° North 427 491 24,000  Level Oakland Center
07:13PM 36.2317 -119.1492 353° North 428 493 24,000  Level Oakland Center
07:14PM 36.3483 -119.1639 354° North 427 491 24,000  Level Oakland Center
07:15PM 36.4644 -119.1814 353° North 422 486 24,000  Level Oakland Center
07:16PM 36.5800 -119.1989 353° North 419 482 24,000  Level Oakland Center
07:17PM 36.6950 -119.2169 353° North 418 481 24,000  Level Oakland Center
07:18PM 36.8100 -119.2342 353° North 416 479 24,000  Level Oakland Center
07:19PM 36.9253 -119.2508 353° North 418 481 24,000  Level Oakland Center
07:20PM 37.0389 -119.2697 352° North 414 476 24,000  Level Oakland Center
07:22PM 37.1775 -119.2894 354° North 419 482 24,000  Level Oakland Center
07:23PM 37.2925 -119.3094 352° North 423 487 24,000  Level Oakland Center
07:24PM 37.4064 -119.3247 354° North 413 475 24,000  Level Oakland Center
07:25PM 37.5217 -119.3428 353° North 417 480 24,000  Level Oakland Center
07:26PM 37.6322 -119.3717 348° North 401 461 24,000  Level Oakland Center
07:27PM 37.7411 -119.4086 345° North 402 463 24,000  Level Oakland Center
07:28PM 37.8494 -119.4458 345° North 403 464 24,000  Level Oakland Center
07:29PM 37.9597 -119.4806 346° North 406 467 24,000  Level Oakland Center
07:30PM 38.0681 -119.5161 346° North 404 465 24,000  Level Oakland Center
07:31PM 38.1739 -119.5533 345° North 399 459 24,000 -420 Level Oakland Center
07:32PM 38.2819 -119.5894 345° North 400 460 23,200 -1,740 Descending Oakland Center
07:33PM 38.4100 -119.6317 346° North 398 458 20,500 -2,400 Descending Oakland Center
07:34PM 38.4981 -119.6611 345° North 362 417 18,400 -2,220 Descending Oakland Center
07:35PM 38.5853 -119.6897 346° North 331 381 16,000 -2,100 Descending Oakland Center
07:36PM 38.6750 -119.7228 344° North 330 380 14,100 -960 Descending Oakland Center
07:37PM 38.7614 -119.7517 345° North 325 374 14,100  Level Oakland Center
07:38PM 38.8522 -119.7694 351° North 332 382 14,100 -60 Level Oakland Center
07:39PM 38.9508 -119.7700 360° North 347 399 14,000 -660 Descending Oakland Center
07:40PM 39.0447 -119.7717 359° North 343 395 12,800 -1,620 Descending Oakland Center
07:41PM 39.1411 -119.7706 North 343 395 10,800 -1,380 Descending Oakland Center
07:42PM 39.2311 -119.7706 360° North 337 388 10,000 -1,080 Descending Oakland Center
07:43PM 39.2994 -119.7697 North 287 330 8,600 -1,320 Descending Oakland Center
07:44PM 39.4000 -119.7667 North 193 222 6,800 -1,260 Descending Northern Cal TRACON
07:45PM 39.4500 -119.7667 360° North 155 178 5,400 -1,320 Descending Northern Cal TRACON
07:47PM 39.4833 -119.7667 North  Level FlightAware Approximate
07:54PM 39.4991 -119.7681 North  Level Estimated
07:55PM 39.4991 -119.7681 North  Level Estimated